createdAt,value
2023-05-14T00:02:23.841Z,101322.53
2023-05-14T00:05:16.778Z,101313.00
2023-05-14T00:08:08.750Z,101317.34
2023-05-14T00:10:53.589Z,101317.03
2023-05-14T00:13:44.759Z,101321.81
2023-05-14T00:16:35.872Z,101321.78
2023-05-14T00:19:27.760Z,101313.63
2023-05-14T00:22:12.780Z,101321.53
2023-05-14T00:25:03.773Z,101324.56
2023-05-14T00:27:54.761Z,101317.78
2023-05-14T00:30:39.902Z,101320.75
2023-05-14T00:33:30.759Z,101330.91
2023-05-14T00:36:16.174Z,101318.19
2023-05-14T00:39:07.770Z,101312.13
2023-05-14T00:41:58.885Z,101304.84
2023-05-14T00:44:50.772Z,101295.63
2023-05-14T00:47:42.831Z,101306.78
2023-05-14T00:50:27.830Z,101310.97
2023-05-14T00:53:19.782Z,101310.13
2023-05-14T00:56:05.280Z,101313.44
2023-05-14T00:58:56.776Z,101313.25
2023-05-14T01:01:42.121Z,101318.00
2023-05-14T01:04:33.790Z,101320.03
2023-05-14T01:07:37.288Z,101315.41
2023-05-14T01:10:41.787Z,101311.13
2023-05-14T01:13:46.612Z,101310.72
2023-05-14T01:16:39.799Z,101316.59
2023-05-14T01:19:43.694Z,101310.84
2023-05-14T01:22:34.790Z,101304.44
2023-05-14T01:25:26.768Z,101309.06
2023-05-14T01:28:25.799Z,101307.53
2023-05-14T01:31:24.783Z,101309.34
2023-05-14T01:34:12.516Z,101305.84
2023-05-14T01:37:04.781Z,101297.06
2023-05-14T01:39:57.200Z,101302.91
2023-05-14T01:42:49.849Z,101289.44
2023-05-14T01:45:36.316Z,101286.06
2023-05-14T01:48:27.795Z,101280.41
2023-05-14T01:51:14.548Z,101284.03
2023-05-14T01:54:05.801Z,101278.47
2023-05-14T01:56:51.520Z,101277.47
2023-05-14T01:59:42.801Z,101274.44
2023-05-14T02:02:27.619Z,101286.69
2023-05-14T02:05:19.780Z,101286.97
2023-05-14T02:08:04.826Z,101278.19
2023-05-14T02:10:56.790Z,101278.34
2023-05-14T02:13:41.943Z,101276.38
2023-05-14T02:16:33.889Z,101272.94
2023-05-14T02:19:18.823Z,101274.84
2023-05-14T02:22:09.794Z,101270.56
2023-05-14T02:24:55.064Z,101264.28
2023-05-14T02:27:46.800Z,101263.31
2023-05-14T02:30:38.812Z,101259.84
2023-05-14T02:33:23.834Z,101259.69
2023-05-14T02:36:15.818Z,101254.41
2023-05-14T02:39:07.025Z,101254.84
2023-05-14T02:41:58.796Z,101255.94
2023-05-14T02:44:44.089Z,101259.13
2023-05-14T02:47:37.490Z,101257.75
2023-05-14T02:50:23.367Z,101258.19
2023-05-14T02:53:14.810Z,101257.75
2023-05-14T02:55:59.831Z,101266.78
2023-05-14T02:58:50.814Z,101257.31
2023-05-14T03:01:35.627Z,101259.56
2023-05-14T03:04:27.821Z,101259.56
2023-05-14T03:07:19.802Z,101268.28
2023-05-14T03:10:05.764Z,101276.94
2023-05-14T03:12:57.819Z,101266.63
2023-05-14T03:15:42.993Z,101269.53
2023-05-14T03:18:36.934Z,101263.72
2023-05-14T03:21:22.040Z,101257.69
2023-05-14T03:24:13.840Z,101263.97
2023-05-14T03:26:58.718Z,101269.13
2023-05-14T03:29:50.816Z,101255.09
2023-05-14T03:32:37.281Z,101255.63
2023-05-14T03:35:28.805Z,101247.59
2023-05-14T03:38:33.823Z,101247.31
2023-05-14T03:41:26.805Z,101251.34
2023-05-14T03:44:11.954Z,101254.38
2023-05-14T03:47:03.853Z,101255.63
2023-05-14T03:49:49.898Z,101263.50
2023-05-14T03:52:40.850Z,101267.44
2023-05-14T03:55:25.661Z,101279.16
2023-05-14T03:58:20.831Z,101270.09
2023-05-14T04:01:12.818Z,101258.84
2023-05-14T04:04:03.930Z,101262.19
2023-05-14T04:06:55.822Z,101259.69
2023-05-14T04:09:40.601Z,101260.91
2023-05-14T04:12:32.823Z,101260.59
2023-05-14T04:15:17.818Z,101259.63
2023-05-14T04:18:08.848Z,101261.41
2023-05-14T04:20:53.742Z,101268.84
2023-05-14T04:23:44.833Z,101260.91
2023-05-14T04:26:29.677Z,101252.88
2023-05-14T04:29:20.855Z,101261.91
2023-05-14T04:32:06.598Z,101253.41
2023-05-14T04:34:57.820Z,101245.88
2023-05-14T04:37:56.876Z,101243.69
2023-05-14T04:40:55.813Z,101238.28
2023-05-14T04:43:46.846Z,101235.63
2023-05-14T04:46:37.839Z,101242.72
2023-05-14T04:49:22.649Z,101239.81
2023-05-14T04:52:14.839Z,101241.72
2023-05-14T04:54:59.521Z,101250.22
2023-05-14T04:57:50.822Z,101244.38
2023-05-14T05:00:35.743Z,101246.47
2023-05-14T05:03:26.973Z,101253.97
2023-05-14T05:06:18.845Z,101250.63
2023-05-14T05:09:10.864Z,101251.03
2023-05-14T05:11:56.210Z,101252.69
2023-05-14T05:14:47.858Z,101252.00
2023-05-14T05:17:32.769Z,101258.41
2023-05-14T05:20:24.998Z,101258.34
2023-05-14T05:23:10.183Z,101247.19
2023-05-14T05:26:01.830Z,101236.44
2023-05-14T05:28:46.992Z,101237.41
2023-05-14T05:31:38.885Z,101228.00
2023-05-14T05:34:29.873Z,101237.28
2023-05-14T05:37:14.845Z,101231.47
2023-05-14T05:40:12.847Z,101237.00
2023-05-14T05:42:57.905Z,101236.56
2023-05-14T05:45:48.840Z,101230.22
2023-05-14T05:48:33.778Z,101231.97
2023-05-14T05:51:24.849Z,101234.41
2023-05-14T05:54:09.775Z,101216.53
2023-05-14T05:57:00.861Z,101225.66
2023-05-14T05:59:46.138Z,101232.41
2023-05-14T06:02:38.004Z,101227.38
2023-05-14T06:05:22.819Z,101225.00
2023-05-14T06:08:14.877Z,101220.03
2023-05-14T06:10:59.629Z,101222.09
2023-05-14T06:13:50.878Z,101220.63
2023-05-14T06:16:35.799Z,101214.31
2023-05-14T06:19:26.847Z,101221.69
2023-05-14T06:22:11.889Z,101223.91
2023-05-14T06:25:02.881Z,101227.31
2023-05-14T06:27:47.879Z,101228.34
2023-05-14T06:30:38.844Z,101227.50
2023-05-14T06:33:30.533Z,101228.06
2023-05-14T06:36:21.862Z,101229.25
2023-05-14T06:39:13.986Z,101229.09
2023-05-14T06:42:13.852Z,101223.44
2023-05-14T06:45:04.844Z,101223.50
2023-05-14T06:47:49.697Z,101225.69
2023-05-14T06:50:40.898Z,101227.19
2023-05-14T06:53:25.680Z,101220.69
2023-05-14T06:56:16.854Z,101216.75
2023-05-14T06:59:02.210Z,101210.94
2023-05-14T07:01:53.924Z,101201.97
2023-05-14T07:04:38.884Z,101187.63
2023-05-14T07:07:29.887Z,101206.75
2023-05-14T07:10:14.930Z,101197.03
2023-05-14T07:13:06.904Z,101197.19
2023-05-14T07:15:51.785Z,101198.72
2023-05-14T07:18:42.906Z,101202.38
2023-05-14T07:21:27.917Z,101192.81
2023-05-14T07:24:19.876Z,101194.41
2023-05-14T07:27:05.128Z,101184.56
2023-05-14T07:29:56.908Z,101179.50
2023-05-14T07:32:42.273Z,101168.31
2023-05-14T07:35:33.870Z,101160.59
2023-05-14T07:38:25.889Z,101160.03
2023-05-14T07:41:18.053Z,101165.69
2023-05-14T07:44:09.877Z,101146.00
2023-05-14T07:46:54.731Z,101139.78
2023-05-14T07:49:45.873Z,101136.94
2023-05-14T07:52:37.886Z,101134.16
2023-05-14T07:55:29.872Z,101137.97
2023-05-14T07:58:16.009Z,101142.56
2023-05-14T08:01:08.895Z,101139.00
2023-05-14T08:03:53.710Z,101142.88
2023-05-14T08:06:44.921Z,101140.16
2023-05-14T08:09:29.925Z,101141.41
2023-05-14T08:12:22.905Z,101139.78
2023-05-14T08:15:08.242Z,101139.28
2023-05-14T08:17:59.942Z,101139.41
2023-05-14T08:20:45.111Z,101134.78
2023-05-14T08:23:36.911Z,101134.69
2023-05-14T08:26:21.821Z,101131.34
2023-05-14T08:29:14.689Z,101130.78
2023-05-14T08:32:08.428Z,101134.28
2023-05-14T08:35:02.944Z,101128.78
2023-05-14T08:37:47.932Z,101128.56
2023-05-14T08:40:45.958Z,101120.25
2023-05-14T08:43:51.922Z,101123.91
2023-05-14T08:46:38.561Z,101121.59
2023-05-14T08:49:48.921Z,101120.22
2023-05-14T08:52:34.614Z,101123.53
2023-05-14T08:55:25.909Z,101114.09
2023-05-14T08:58:11.147Z,101114.31
2023-05-14T09:01:02.913Z,101114.75
2023-05-14T09:03:48.463Z,101111.28
2023-05-14T09:06:39.919Z,101118.69
2023-05-14T09:09:26.392Z,101114.25
2023-05-14T09:12:17.917Z,101111.53
2023-05-14T09:15:03.325Z,101111.88
2023-05-14T09:17:54.966Z,101104.97
2023-05-14T09:20:39.709Z,101106.22
2023-05-14T09:23:40.929Z,101105.59
2023-05-14T09:26:26.807Z,101108.78
2023-05-14T09:29:17.941Z,101088.44
2023-05-14T09:32:05.344Z,101097.41
2023-05-14T09:34:56.932Z,101093.50
2023-05-14T09:37:43.646Z,101087.59
2023-05-14T09:40:41.955Z,101074.84
2023-05-14T09:43:33.958Z,101075.91
2023-05-14T09:46:18.770Z,101075.69
2023-05-14T09:49:09.959Z,101081.53
2023-05-14T09:51:56.917Z,101075.63
2023-05-14T09:54:48.951Z,101075.41
2023-05-14T09:57:40.943Z,101068.53
2023-05-14T10:00:32.939Z,101065.16
2023-05-14T10:03:20.268Z,101069.09
2023-05-14T10:06:12.938Z,101063.44
2023-05-14T10:09:04.019Z,101062.38
2023-05-14T10:11:59.959Z,101061.50
2023-05-14T10:14:53.136Z,101060.00
2023-05-14T10:17:50.037Z,101049.63
2023-05-14T10:20:37.986Z,101053.22
2023-05-14T10:23:29.964Z,101043.69
2023-05-14T10:26:15.698Z,101045.03
2023-05-14T10:29:07.969Z,101049.66
2023-05-14T10:31:55.212Z,101041.84
2023-05-14T10:34:49.968Z,101042.44
2023-05-14T10:37:34.881Z,101050.59
2023-05-14T10:40:32.975Z,101052.97
2023-05-14T10:43:19.212Z,101046.97
2023-05-14T10:46:11.006Z,101027.34
2023-05-14T10:49:02.969Z,101034.63
2023-05-14T10:51:55.967Z,101025.16
2023-05-14T10:54:54.978Z,101019.19
2023-05-14T10:57:48.967Z,101014.91
2023-05-14T11:00:35.467Z,101016.59
2023-05-14T11:03:28.029Z,101009.78
2023-05-14T11:06:14.976Z,101003.94
2023-05-14T11:09:07.993Z,101000.16
2023-05-14T11:11:53.036Z,100999.66
2023-05-14T11:14:44.992Z,100993.00
2023-05-14T11:17:31.529Z,100985.94
2023-05-14T11:20:24.253Z,100983.97
2023-05-14T11:23:09.540Z,100983.59
2023-05-14T11:26:03.077Z,100987.69
2023-05-14T11:28:48.076Z,100991.84
2023-05-14T11:31:40.035Z,100987.00
2023-05-14T11:34:32.034Z,100987.28
2023-05-14T11:37:17.288Z,100986.09
2023-05-14T11:40:16.002Z,100971.22
2023-05-14T11:43:00.849Z,100975.97
2023-05-14T11:46:00.063Z,100971.22
2023-05-14T11:48:45.480Z,100964.00
2023-05-14T11:51:36.994Z,100955.22
2023-05-14T11:54:29.000Z,100958.78
2023-05-14T11:57:17.844Z,100957.41
2023-05-14T12:00:11.013Z,100953.38
2023-05-14T12:02:56.218Z,100957.94
2023-05-14T12:06:01.027Z,100948.53
2023-05-14T12:08:48.191Z,100952.66
2023-05-14T12:11:42.037Z,100940.19
2023-05-14T12:14:33.010Z,100943.16
2023-05-14T12:17:22.528Z,100942.94
2023-05-14T12:20:19.019Z,100935.44
2023-05-14T12:23:04.153Z,100938.03
2023-05-14T12:25:57.025Z,100933.75
2023-05-14T12:28:50.007Z,100934.59
2023-05-14T12:31:43.085Z,100927.94
2023-05-14T12:34:28.085Z,100925.78
2023-05-14T12:37:20.050Z,100911.91
2023-05-14T12:40:18.036Z,100904.94
2023-05-14T12:43:02.867Z,100909.59
2023-05-14T12:45:54.020Z,100908.38
2023-05-14T12:48:39.202Z,100897.50
2023-05-14T12:51:30.047Z,100896.38
2023-05-14T12:54:15.871Z,100897.13
2023-05-14T12:57:07.040Z,100896.16
2023-05-14T12:59:51.945Z,100889.19
2023-05-14T13:02:44.015Z,100879.06
2023-05-14T13:05:29.417Z,100885.97
2023-05-14T13:08:24.017Z,100881.50
2023-05-14T13:11:08.794Z,100882.00
2023-05-14T13:14:00.037Z,100877.97
2023-05-14T13:16:51.059Z,100881.06
2023-05-14T13:19:36.244Z,100877.06
2023-05-14T13:22:27.018Z,100875.31
2023-05-14T13:25:12.072Z,100871.28
2023-05-14T13:28:04.044Z,100871.28
2023-05-14T13:31:10.311Z,100865.88
2023-05-14T13:34:02.031Z,100867.88
2023-05-14T13:36:47.859Z,100862.28
2023-05-14T13:39:54.045Z,100852.53
2023-05-14T13:42:52.062Z,100843.28
2023-05-14T13:45:37.115Z,100846.03
2023-05-14T13:48:28.044Z,100840.44
2023-05-14T13:51:13.038Z,100839.50
2023-05-14T13:54:04.037Z,100837.53
2023-05-14T13:56:49.117Z,100831.50
2023-05-14T13:59:41.053Z,100827.13
2023-05-14T14:02:33.567Z,100828.41
2023-05-14T14:05:26.238Z,100821.53
2023-05-14T14:08:22.585Z,100814.72
2023-05-14T14:11:15.057Z,100819.06
2023-05-14T14:14:00.285Z,100803.56
2023-05-14T14:16:52.089Z,100805.56
2023-05-14T14:19:43.050Z,100802.81
2023-05-14T14:22:29.113Z,100805.81
2023-05-14T14:25:21.138Z,100796.69
2023-05-14T14:28:13.081Z,100794.31
2023-05-14T14:30:57.952Z,100793.25
2023-05-14T14:33:49.062Z,100786.28
2023-05-14T14:36:33.897Z,100793.81
2023-05-14T14:39:25.063Z,100779.34
2023-05-14T14:42:17.076Z,100774.31
2023-05-14T14:45:02.184Z,100772.28
2023-05-14T14:47:53.134Z,100765.25
2023-05-14T14:50:38.212Z,100768.34
2023-05-14T14:53:31.077Z,100771.94
2023-05-14T14:56:15.870Z,100767.00
2023-05-14T14:59:08.063Z,100770.03
2023-05-14T15:01:53.123Z,100760.97
2023-05-14T15:04:45.083Z,100764.22
2023-05-14T15:07:39.085Z,100766.56
2023-05-14T15:10:30.080Z,100762.59
2023-05-14T15:13:14.954Z,100762.94
2023-05-14T15:16:06.147Z,100755.03
2023-05-14T15:18:51.066Z,100757.84
2023-05-14T15:21:43.094Z,100765.44
2023-05-14T15:24:27.916Z,100758.25
2023-05-14T15:27:19.119Z,100756.13
2023-05-14T15:30:11.091Z,100751.16
2023-05-14T15:32:56.176Z,100748.75
2023-05-14T15:35:48.110Z,100751.13
2023-05-14T15:38:33.393Z,100751.06
2023-05-14T15:41:32.097Z,100751.03
2023-05-14T15:44:23.098Z,100742.97
2023-05-14T15:47:14.099Z,100737.53
2023-05-14T15:49:59.871Z,100744.41
2023-05-14T15:52:52.116Z,100738.19
2023-05-14T15:55:37.292Z,100742.94
2023-05-14T15:58:29.081Z,100747.88
2023-05-14T16:01:14.084Z,100742.16
2023-05-14T16:04:05.199Z,100743.31
2023-05-14T16:06:51.060Z,100738.38
2023-05-14T16:09:43.101Z,100738.31
2023-05-14T16:12:28.415Z,100745.72
2023-05-14T16:15:20.104Z,100735.13
2023-05-14T16:18:05.402Z,100742.00
2023-05-14T16:20:57.119Z,100741.41
2023-05-14T16:23:49.114Z,100733.19
2023-05-14T16:26:34.398Z,100737.22
2023-05-14T16:29:26.110Z,100742.66
2023-05-14T16:32:11.197Z,100739.53
2023-05-14T16:35:03.242Z,100736.19
2023-05-14T16:37:48.617Z,100738.13
2023-05-14T16:40:47.108Z,100738.13
2023-05-14T16:43:38.113Z,100731.53
2023-05-14T16:46:23.126Z,100743.13
2023-05-14T16:49:15.118Z,100742.13
2023-05-14T16:51:59.819Z,100740.81
2023-05-14T16:54:51.099Z,100739.75
2023-05-14T16:57:43.166Z,100741.09
2023-05-14T17:00:35.117Z,100740.44
2023-05-14T17:03:20.150Z,100740.66
2023-05-14T17:06:12.129Z,100748.41
2023-05-14T17:08:56.898Z,100743.94
2023-05-14T17:11:48.128Z,100735.66
2023-05-14T17:14:33.331Z,100741.78
2023-05-14T17:17:25.153Z,100738.59
2023-05-14T17:20:11.089Z,100740.47
2023-05-14T17:23:02.099Z,100739.09
2023-05-14T17:25:47.003Z,100740.59
2023-05-14T17:28:39.117Z,100741.72
2023-05-14T17:31:24.313Z,100748.03
2023-05-14T17:34:16.110Z,100755.50
2023-05-14T17:37:08.123Z,100742.06
2023-05-14T17:39:59.197Z,100748.03
2023-05-14T17:42:45.340Z,100753.06
2023-05-14T17:45:52.663Z,100751.44
2023-05-14T17:48:38.549Z,100757.50
2023-05-14T17:51:30.146Z,100758.72
2023-05-14T17:54:21.138Z,100763.31
2023-05-14T17:57:13.156Z,100760.81
2023-05-14T18:00:04.134Z,100773.34
2023-05-14T18:02:55.257Z,100774.59
2023-05-14T18:05:40.205Z,100769.25
2023-05-14T18:08:32.152Z,100776.31
2023-05-14T18:11:17.112Z,100782.50
2023-05-14T18:14:08.161Z,100779.03
2023-05-14T18:16:53.602Z,100780.50
2023-05-14T18:19:47.161Z,100782.97
2023-05-14T18:22:32.266Z,100789.03
2023-05-14T18:25:23.422Z,100784.25
2023-05-14T18:28:09.204Z,100784.72
2023-05-14T18:31:00.196Z,100787.47
2023-05-14T18:33:45.384Z,100785.59
2023-05-14T18:36:37.189Z,100794.66
2023-05-14T18:39:28.254Z,100793.03
2023-05-14T18:42:27.178Z,100793.66
2023-05-14T18:45:12.044Z,100796.34
2023-05-14T18:48:04.321Z,100803.78
2023-05-14T18:50:49.503Z,100805.84
2023-05-14T18:53:41.166Z,100806.88
2023-05-14T18:56:26.396Z,100811.41
2023-05-14T18:59:18.169Z,100805.88
2023-05-14T19:02:03.210Z,100809.59
2023-05-14T19:04:54.187Z,100804.66
2023-05-14T19:07:47.197Z,100803.00
2023-05-14T19:10:32.014Z,100803.41
2023-05-14T19:13:23.208Z,100804.44
2023-05-14T19:16:08.153Z,100816.59
2023-05-14T19:19:00.267Z,100814.53
2023-05-14T19:21:52.204Z,100813.44
2023-05-14T19:24:44.173Z,100811.13
2023-05-14T19:27:29.368Z,100816.44
2023-05-14T19:30:21.214Z,100813.56
2023-05-14T19:33:06.298Z,100818.03
2023-05-14T19:35:58.187Z,100817.22
2023-05-14T19:38:43.316Z,100825.25
2023-05-14T19:41:42.198Z,100821.69
2023-05-14T19:44:27.233Z,100825.81
2023-05-14T19:47:18.248Z,100829.09
2023-05-14T19:50:10.213Z,100828.72
2023-05-14T19:52:56.606Z,100823.97
2023-05-14T19:55:48.200Z,100832.44
2023-05-14T19:58:33.079Z,100831.25
2023-05-14T20:01:25.251Z,100838.53
2023-05-14T20:04:17.185Z,100850.72
2023-05-14T20:07:02.728Z,100860.84
2023-05-14T20:09:54.221Z,100857.56
2023-05-14T20:12:39.321Z,100865.03
2023-05-14T20:15:31.212Z,100870.75
2023-05-14T20:18:16.137Z,100871.16
2023-05-14T20:21:08.222Z,100870.72
2023-05-14T20:23:53.289Z,100863.28
2023-05-14T20:26:44.211Z,100855.88
2023-05-14T20:29:29.553Z,100853.59
2023-05-14T20:32:22.216Z,100857.50
2023-05-14T20:35:07.518Z,100858.47
2023-05-14T20:37:59.196Z,100853.03
2023-05-14T20:41:04.237Z,100850.13
2023-05-14T20:43:56.205Z,100846.59
2023-05-14T20:46:41.419Z,100844.53
2023-05-14T20:49:33.212Z,100843.91
2023-05-14T20:52:18.743Z,100843.25
2023-05-14T20:55:10.213Z,100836.44
2023-05-14T20:57:55.348Z,100832.72
2023-05-14T21:00:47.223Z,100825.34
2023-05-14T21:03:32.355Z,100829.03
2023-05-14T21:06:24.222Z,100820.00
2023-05-14T21:09:10.544Z,100812.53
2023-05-14T21:12:02.232Z,100817.06
2023-05-14T21:14:54.232Z,100821.34
2023-05-14T21:17:39.368Z,100816.72
2023-05-14T21:20:30.233Z,100822.84
2023-05-14T21:23:22.213Z,100822.41
2023-05-14T21:26:07.210Z,100820.34
2023-05-14T21:28:58.224Z,100818.25
2023-05-14T21:31:43.354Z,100817.78
2023-05-14T21:34:35.231Z,100823.28
2023-05-14T21:37:28.222Z,100819.69
2023-05-14T21:40:33.235Z,100820.22
2023-05-14T21:43:25.228Z,100820.72
2023-05-14T21:46:10.258Z,100823.84
2023-05-14T21:49:02.298Z,100818.28
2023-05-14T21:51:48.651Z,100816.63
2023-05-14T21:54:40.253Z,100816.63
2023-05-14T21:57:34.544Z,100811.50
2023-05-14T22:00:29.231Z,100811.88
2023-05-14T22:03:21.319Z,100820.53
2023-05-14T22:06:13.264Z,100819.50
2023-05-14T22:09:05.246Z,100828.16
2023-05-14T22:11:50.166Z,100817.56
2023-05-14T22:14:41.248Z,100820.22
2023-05-14T22:17:27.945Z,100826.88
2023-05-14T22:20:20.243Z,100816.41
2023-05-14T22:23:05.315Z,100812.84
2023-05-14T22:25:57.259Z,100807.13
2023-05-14T22:28:50.235Z,100803.25
2023-05-14T22:31:35.234Z,100795.75
2023-05-14T22:34:27.229Z,100802.50
2023-05-14T22:37:12.126Z,100799.38
2023-05-14T22:40:04.241Z,100786.97
2023-05-14T22:42:55.428Z,100784.84
2023-05-14T22:45:47.257Z,100780.72
2023-05-14T22:48:38.265Z,100778.69
2023-05-14T22:51:29.253Z,100772.91
2023-05-14T22:54:20.259Z,100771.44
2023-05-14T22:57:13.254Z,100773.44
2023-05-14T22:59:58.224Z,100764.34
2023-05-14T23:02:49.315Z,100767.22
2023-05-14T23:05:41.262Z,100772.78
2023-05-14T23:08:26.225Z,100775.81
2023-05-14T23:11:17.253Z,100767.44
2023-05-14T23:14:08.254Z,100769.94
2023-05-14T23:16:53.336Z,100762.38
2023-05-14T23:19:45.267Z,100759.91
2023-05-14T23:22:30.334Z,100762.94
2023-05-14T23:25:21.274Z,100753.31
2023-05-14T23:28:06.170Z,100756.16
2023-05-14T23:30:57.263Z,100755.16
2023-05-14T23:33:44.391Z,100757.56
2023-05-14T23:36:38.273Z,100765.81
2023-05-14T23:39:23.193Z,100760.22
2023-05-14T23:42:21.280Z,100766.53
2023-05-14T23:45:07.241Z,100768.63
2023-05-14T23:48:00.351Z,100770.66
2023-05-14T23:50:51.268Z,100767.38
2023-05-14T23:53:42.257Z,100776.13
2023-05-14T23:56:28.900Z,100762.31
2023-05-14T23:59:20.263Z,100758.91
